Latest Weather Observations for Stawell

IDV60801

Issued at 5:12 pm EST Sunday 23 September 2018 (issued every 10 minutes, with the page automatically refreshed every 10 minutes)

About weather observations | Map of weather stations | Latest weather observations for VIC | Other Formats
Station Details ID: 079105 Name: STAWELL AERODROME Lat: -37.07 Lon: 142.74 Height: 235.36 m
Data from the previous 72 hours. | See also: Recent months at Stawell
Date/Time
EST
Temp
°C
App
Temp
°C
Dew
Point
°C
Rel
Hum
%
Delta-T
°C
Wind Press
QNH
hPa
Press
MSL
hPa
Rain since
9am
mm
Dir  Spd
km/h
Gust
km/h
Spd
kts
Gust
kts
23/05:00pm 10.2 4.2 1.1 53 3.8 S 22 33 12 18 1031.0 1031.2 0.0
23/04:30pm 10.3 4.4 1.9 56 3.6 SSE 22 32 12 17 1031.0 1031.2 0.0
23/04:00pm 10.2 4.8 2.3 58 3.4 S 20 32 11 17 1030.9 1031.1 0.0
23/03:30pm 10.9 4.2 1.2 51 4.1 SSE 26 35 14 19 1030.7 1030.9 0.0
23/03:00pm 11.2 4.5 1.7 52 4.0 S 26 39 14 21 1030.8 1031.0 0.0
23/02:30pm 11.7 5.4 1.4 49 4.4 S 24 37 13 20 1030.5 1030.7 0.0
23/02:00pm 12.0 4.9 1.1 47 4.6 SSE 28 37 15 20 1030.7 1030.9 0.0
23/01:30pm 12.3 5.0 2.5 51 4.3 S 30 41 16 22 1030.7 1030.9 0.0
23/01:00pm 12.7 5.7 2.0 48 4.6 SSE 28 43 15 23 1030.7 1030.9 0.0
23/12:30pm 12.3 5.6 1.6 48 4.6 S 26 43 14 23 1031.0 1031.2 0.0
23/12:00pm 12.1 6.2 2.0 50 4.4 S 22 33 12 18 1031.0 1031.2 0.0
23/11:30am 12.4 6.5 2.0 49 4.5 SSW 22 41 12 22 1031.3 1031.5 0.0
23/11:00am 12.3 7.1 3.5 55 3.9 S 20 28 11 15 1031.5 1031.7 0.0
23/10:30am 11.3 5.4 3.8 60 3.4 SSE 24 35 13 19 1031.4 1031.6 0.0
23/10:00am 11.6 5.4 4.3 61 3.3 SSE 26 35 14 19 1031.3 1031.5 0.0
23/09:30am 10.2 3.7 4.8 69 2.5 S 28 35 15 19 1031.3 1031.5 0.0
23/09:00am 10.5 5.3 5.7 72 2.2 S 22 32 12 17 1030.9 1031.1 0.0
23/08:30am 9.9 4.4 5.7 75 1.9 S 24 33 13 18 1030.8 1031.0 0.0
23/08:00am 9.0 3.4 5.2 77 1.7 S 24 41 13 22 1030.4 1030.6 0.0
23/07:30am 8.4 3.5 6.7 89 0.8 S 22 35 12 19 1030.3 1030.5 0.0
23/07:00am 8.7 4.3 7.2 90 0.7 S 20 30 11 16 1029.6 1029.7 0.0
23/06:30am 8.5 5.8 7.3 92 0.6 SSE 11 17 6 9 1029.3 1029.4 0.0
23/06:00am 8.6 4.7 7.2 91 0.7 SSE 17 22 9 12 1029.0 1029.1 0.0
23/05:30am 8.6 3.9 7.8 95 0.4 S 22 37 12 20 1028.5 1028.7 0.0
23/05:00am 7.1 4.3 6.8 98 0.1 SSE 11 20 6 11 1028.0 1028.2 0.0
23/04:30am 5.3 3.0 4.6 95 0.3 ESE 6 9 3 5 1027.4 1027.6 0.0
23/04:00am 5.5 4.3 4.8 95 0.3 CALM 0 0 0 0 1027.3 1027.5 0.0
23/03:30am 6.0 4.9 5.1 94 0.4 CALM 0 0 0 0 1027.2 1027.4 0.0
23/03:00am 5.7 4.5 4.5 92 0.5 CALM 0 0 0 0 1027.3 1027.5 0.0
23/02:30am 7.2 6.3 6.0 92 0.5 CALM 0 6 0 3 1027.4 1027.6 0.0
23/02:00am 8.3 7.5 6.3 87 0.9 CALM 0 0 0 0 1027.5 1027.7 0.0
23/01:30am 9.4 7.5 6.8 84 1.2 S 6 9 3 5 1027.6 1027.8 0.0
23/01:00am 9.8 7.4 6.9 82 1.4 SSE 9 13 5 7 1027.7 1027.9 0.0
23/12:30am 10.7 8.0 7.4 80 1.6 SSE 11 15 6 8 1027.7 1027.9 0.0
23/12:00am 11.6 9.0 7.7 77 1.9 SSE 11 17 6 9 1027.8 1028.0 0.0
 
Date/Time
EST
Temp
°C
App
Temp
°C
Dew
Point
°C
Rel
Hum
%
Delta-T
°C
Wind Press
QNH
hPa
Press
MSL
hPa
Rain since
9am
mm
Dir  Spd
km/h
Gust
km/h
Spd
kts
Gust
kts
22/11:30pm 10.8 8.9 7.5 80 1.6 SSE 7 13 4 7 1027.9 1028.1 0.0
22/11:00pm 11.3 8.7 7.6 78 1.8 SSE 11 17 6 9 1027.6 1027.8 0.0
22/10:30pm 11.6 8.5 7.3 75 2.1 S 13 17 7 9 1027.5 1027.7 0.0
22/10:00pm 12.2 8.7 7.3 72 2.4 S 15 20 8 11 1027.4 1027.6 0.0
22/09:30pm 12.2 9.4 7.1 71 2.5 S 11 15 6 8 1027.6 1027.8 0.0
22/09:00pm 12.5 9.7 7.0 69 2.7 S 11 17 6 9 1027.3 1027.5 0.0
22/08:30pm 12.7 10.0 7.2 69 2.7 S 11 15 6 8 1027.2 1027.4 0.0
22/08:00pm 12.7 10.4 7.6 71 2.5 SSW 9 17 5 9 1027.0 1027.2 0.0
22/07:30pm 13.4 10.4 7.8 69 2.8 S 13 19 7 10 1026.7 1026.9 0.0
22/07:00pm 13.8 11.2 7.8 67 3.0 S 11 19 6 10 1026.5 1026.6 0.0
22/06:30pm 14.9 11.1 7.5 61 3.7 S 17 22 9 12 1026.3 1026.4 0.0
22/06:00pm 16.0 13.7 7.5 57 4.3 SSW 9 13 5 7 1025.9 1026.0 0.0
22/05:30pm 17.4 15.1 7.5 52 5.0 SW 9 15 5 8 1025.5 1025.6 0.0
22/05:00pm 18.4 15.7 7.5 49 5.6 WSW 11 19 6 10 1025.3 1025.4 0.0
22/04:30pm 19.1 15.0 4.1 37 7.2 WSW 15 24 8 13 1025.0 1025.1 0.0
22/04:00pm 18.6 13.7 4.0 38 7.0 WSW 19 28 10 15 1025.0 1025.1 0.0
22/03:30pm 18.9 14.5 5.0 40 6.8 SW 17 24 9 13 1025.1 1025.2 0.0
22/03:00pm 19.7 16.0 4.6 37 7.3 WNW 13 20 7 11 1025.0 1025.1 0.0
22/02:30pm 19.3 14.6 3.1 34 7.7 NW 17 26 9 14 1025.2 1025.3 0.0
22/02:00pm 19.1 15.0 4.1 37 7.2 WNW 15 32 8 17 1025.3 1025.4 0.0
22/01:30pm 19.0 13.9 4.0 37 7.2 NW 20 28 11 15 1025.7 1025.8 0.0
22/01:00pm 17.7 12.6 3.9 40 6.5 NW 20 28 11 15 1026.0 1026.1 0.0
22/12:30pm 18.1 14.0 6.3 46 5.9 WNW 17 26 9 14 1026.9 1027.1 0.0
22/12:00pm 17.4 13.5 5.4 45 5.8 NNW 15 20 8 11 1026.9 1027.1 0.0
22/11:30am 17.3 14.1 6.8 50 5.3 NW 13 22 7 12 1027.0 1027.2 0.0
22/11:00am 15.9 12.3 6.9 55 4.5 WNW 15 22 8 12 1027.3 1027.5 0.0
22/10:30am 15.5 11.4 7.8 60 3.9 NW 19 24 10 13 1027.4 1027.6 0.0
22/10:00am 14.5 10.4 8.0 65 3.3 NW 19 24 10 13 1027.7 1027.9 0.0
22/09:30am 13.6 9.3 7.8 68 2.9 NW 20 26 11 14 1027.6 1027.8 0.0
22/09:00am 12.8 9.8 7.7 71 2.5 NNW 13 20 7 11 1027.6 1027.8 0.0
22/08:30am 10.9 8.6 7.4 79 1.7 N 9 15 5 8 1027.4 1027.6 0.0
22/08:00am 8.2 6.1 6.5 89 0.8 N 7 13 4 7 1027.1 1027.3 0.0
22/07:30am 7.1 5.0 6.5 96 0.3 NNE 7 9 4 5 1026.9 1027.1 0.0
22/07:00am 5.3 3.1 5.2 99 0.0 ENE 6 7 3 4 1026.7 1026.9 0.0
22/06:30am 2.3 -0.7 1.7 96 0.2 ENE 7 9 4 5 1026.4 1026.5 0.0
22/06:00am 3.0 0.3 2.4 96 0.2 E 6 7 3 4 1026.4 1026.5 0.0
22/05:30am 3.4 0.8 3.0 97 0.2 E 6 7 3 4 1026.1 1026.2 0.0
22/05:00am 3.7 0.9 3.3 97 0.2 ESE 7 9 4 5 1025.8 1025.9 0.0
22/04:30am 2.9 1.3 2.3 96 0.2 CALM 0 0 0 0 1025.7 1025.8 0.0
22/04:00am 3.5 0.7 2.9 96 0.2 ESE 7 9 4 5 1025.6 1025.7 0.0
22/03:30am 3.3 0.0 2.6 95 0.3 ESE 9 11 5 6 1025.5 1025.6 0.0
22/03:00am 4.2 1.1 3.6 96 0.2 ESE 9 11 5 6 1025.7 1025.8 0.0
22/02:30am 3.9 0.7 3.2 95 0.3 ESE 9 11 5 6 1026.1 1026.2 0.0
22/02:00am 4.1 0.9 3.2 94 0.4 ESE 9 11 5 6 1026.3 1026.4 0.0
22/01:30am 4.4 0.9 3.5 94 0.4 ESE 11 11 6 6 1026.5 1026.6 0.0
22/01:00am 4.6 1.5 3.6 93 0.4 ESE 9 11 5 6 1026.8 1027.0 0.0
22/12:30am 4.9 2.7 3.6 91 0.5 S 4 9 2 5 1026.8 1027.0 0.0
22/12:00am 5.8 4.6 4.6 92 0.5 CALM 0 0 0 0 1027.1 1027.3 0.0
 
Date/Time
EST
Temp
°C
App
Temp
°C
Dew
Point
°C
Rel
Hum
%
Delta-T
°C
Wind Press
QNH
hPa
Press
MSL
hPa
Rain since
9am
mm
Dir  Spd
km/h
Gust
km/h
Spd
kts
Gust
kts
21/11:30pm 5.8 4.5 4.3 90 0.6 CALM 0 0 0 0 1027.2 1027.4 0.0
21/11:00pm 7.0 5.9 5.3 89 0.8 CALM 0 0 0 0 1027.3 1027.5 0.0
21/10:30pm 7.8 6.4 5.4 85 1.1 SSW 2 6 1 3 1027.2 1027.4 0.0
21/10:00pm 8.3 6.2 6.6 89 0.8 SW 7 9 4 5 1027.3 1027.5 0.0
21/09:30pm 7.8 5.5 5.6 86 1.0 W 7 9 4 5 1027.1 1027.3 0.0
21/09:00pm 8.2 7.2 5.5 83 1.2 CALM 0 0 0 0 1027.1 1027.3 0.0
21/08:30pm 9.6 7.3 5.8 77 1.8 SW 7 7 4 4 1027.0 1027.2 0.0
21/08:00pm 10.3 8.2 6.5 77 1.8 SW 7 9 4 5 1026.8 1027.0 0.0
21/07:30pm 10.0 7.8 6.0 76 1.9 W 7 9 4 5 1026.6 1026.7 0.0
21/07:00pm 12.4 10.3 6.5 67 2.8 W 7 9 4 5 1026.2 1026.3 0.0
21/06:30pm 13.7 11.1 6.3 61 3.6 WNW 9 11 5 6 1026.0 1026.1 0.0
21/06:00pm 15.3 12.7 6.3 55 4.4 W 9 15 5 8 1025.6 1025.7 0.0
21/05:30pm 16.1 13.3 6.8 54 4.6 WNW 11 17 6 9 1025.6 1025.7 0.0
21/05:00pm 16.5 13.2 6.3 51 5.0 WNW 13 22 7 12 1025.5 1025.6 0.0
21/04:30pm 16.4 13.1 6.5 52 4.9 WNW 13 19 7 10 1025.4 1025.5 0.0
21/04:00pm 16.6 13.3 6.4 51 5.0 WNW 13 19 7 10 1025.4 1025.5 0.0
21/03:30pm 16.0 13.2 7.0 55 4.5 WNW 11 20 6 11 1025.5 1025.6 0.0
21/03:00pm 16.0 12.8 6.7 54 4.6 WNW 13 22 7 12 1025.6 1025.7 0.0
21/02:30pm 15.4 12.1 6.4 55 4.4 W 13 22 7 12 1025.9 1026.0 0.0
21/02:00pm 15.3 10.8 6.3 55 4.4 WNW 19 26 10 14 1026.3 1026.4 0.0
21/01:30pm 15.5 11.4 6.2 54 4.6 NW 17 28 9 15 1026.4 1026.5 0.0
21/01:00pm 14.2 9.6 6.3 59 3.8 NW 20 28 11 15 1026.7 1026.9 0.0
21/12:30pm 15.3 10.3 6.3 55 4.4 NW 22 32 12 17 1026.9 1027.1 0.0
21/12:00pm 14.4 10.0 6.5 59 3.8 NW 19 30 10 16 1027.2 1027.4 0.0
21/11:30am 14.1 9.6 6.0 58 3.9 NW 19 26 10 14 1027.3 1027.5 0.0
21/11:00am 14.6 11.7 6.4 58 4.0 NW 11 19 6 10 1027.2 1027.4 0.0
21/10:30am 13.3 9.8 5.5 59 3.7 NNW 13 20 7 11 1027.4 1027.6 0.0
21/10:00am 13.0 9.6 5.7 61 3.4 NNW 13 20 7 11 1027.5 1027.7 0.0
21/09:30am 11.9 8.5 5.8 66 2.9 WNW 13 19 7 10 1027.5 1027.7 0.0
21/09:00am 11.3 8.8 6.4 72 2.3 NNW 9 17 5 9 1027.4 1027.6 0.0
21/08:30am 10.0 8.0 7.1 82 1.4 N 7 11 4 6 1027.2 1027.4 0.0
21/08:00am 8.4 6.8 6.5 88 0.9 NNE 4 7 2 4 1026.9 1027.1 0.0
21/07:30am 7.4 5.2 6.0 91 0.6 N 7 9 4 5 1026.6 1026.7 0.0
21/07:00am 5.8 4.3 5.2 96 0.3 SSW 2 7 1 4 1026.4 1026.5 0.0
21/06:30am 3.9 2.1 3.3 96 0.2 SSW 2 6 1 3 1026.1 1026.2 0.0
21/06:00am 4.0 1.4 3.3 95 0.3 WSW 6 7 3 4 1025.7 1025.8 0.0
21/05:30am 3.8 1.5 2.8 93 0.4 W 4 9 2 5 1025.6 1025.7 0.0
21/05:00am 4.6 3.2 3.6 93 0.4 CALM 0 0 0 0 1025.5 1025.6 0.0
21/04:30am 5.4 4.2 4.5 94 0.4 CALM 0 0 0 0 1025.3 1025.4 0.0
21/04:00am 5.0 2.5 3.8 92 0.5 WNW 6 6 3 3 1025.0 1025.1 0.0
21/03:30am 5.4 4.0 3.7 89 0.7 CALM 0 0 0 0 1025.0 1025.1 0.0
21/03:00am 7.6 5.4 5.1 84 1.1 WNW 6 7 3 4 1025.0 1025.1 0.0
21/02:30am 7.6 5.2 5.2 85 1.1 W 7 9 4 5 1025.1 1025.2 0.0
21/02:00am 8.0 5.3 5.6 85 1.1 W 9 13 5 7 1025.2 1025.3 0.0
21/01:30am 8.0 4.9 5.6 85 1.1 WSW 11 15 6 8 1025.3 1025.4 0.0
21/01:00am 7.8 5.0 5.1 83 1.2 SW 9 11 5 6 1025.3 1025.4 0.0
21/12:30am 8.4 5.6 5.2 80 1.5 WSW 9 13 5 7 1025.1 1025.2 0.0
21/12:00am 8.1 5.3 5.2 82 1.3 WSW 9 13 5 7 1025.0 1025.1 0.0
 
Date/Time
EST
Temp
°C
App
Temp
°C
Dew
Point
°C
Rel
Hum
%
Delta-T
°C
Wind Press
QNH
hPa
Press
MSL
hPa
Rain since
9am
mm
Dir  Spd
km/h
Gust
km/h
Spd
kts
Gust
kts
20/11:30pm 7.5 4.7 5.0 84 1.1 WSW 9 11 5 6 1025.1 1025.2 0.0
20/11:00pm 8.1 5.9 5.2 82 1.3 W 6 7 3 4 1025.0 1025.1 0.0
20/10:30pm 8.2 5.4 5.1 81 1.4 WSW 9 13 5 7 1025.1 1025.2 0.0
20/10:00pm 9.4 7.1 5.6 77 1.7 WSW 7 11 4 6 1025.0 1025.1 0.0
20/09:30pm 9.3 6.5 5.1 75 1.9 W 9 11 5 6 1024.6 1024.7 0.0
20/09:00pm 10.7 8.0 5.5 70 2.4 W 9 11 5 6 1024.4 1024.5 0.0
20/08:30pm 11.3 8.2 5.4 67 2.8 WSW 11 15 6 8 1024.0 1024.2 0.0
20/08:00pm 12.0 9.2 5.2 63 3.2 WSW 9 15 5 8 1023.7 1023.9 0.0
20/07:30pm 12.7 9.1 5.1 60 3.6 WSW 13 22 7 12 1023.3 1023.5 0.0
20/07:00pm 13.4 10.2 5.3 58 3.8 WSW 11 19 6 10 1022.9 1023.0 0.0
20/06:30pm 13.6 10.9 5.7 59 3.8 WSW 9 13 5 7 1022.6 1022.7 0.0
20/06:00pm 14.1 11.0 5.5 56 4.1 W 11 17 6 9 1022.2 1022.3 0.0
20/05:30pm 14.8 12.0 5.1 52 4.6 W 9 15 5 8 1021.8 1021.9 0.0

Other Formats:

Comma delimited format used in spreadsheet applications
http://www.bom.gov.au/fwo/IDV60801/IDV60801.94836.axf

JavaScript Object Notation format (JSON) in row-major order
http://www.bom.gov.au/fwo/IDV60801/IDV60801.94836.json